Main page
METAR-TAF:

METAR-TAF

Airports :

Iowa City Municipal Airport

Iowa City, Iowa, United States

latitude: 41-37-58N, longitude: 091-32-35W, elevation: 666 ft

Current weather observation

The report was made 32 minutes ago, at 22:52 UTC
Wind 12 mph from the North/Northeast
Temperature 37°F
Humidity 75%
Pressure 29.88 in. Hg
Visibility: 10 miles
Overcast at a height of 1800 ft

METAR: KIOW 012252Z AUTO 02010KT 10SM OVC018 03/M01 A2988 RMK AO2 SLP123 T00281006

Time: 17:24 (23:24 UTC)


TAF: missing

Weather observations and forecasts of more than 4000 airports (METAR and TAF reports).

The available stations are represented by yellow and red dots on the map.

Hover mouse over dot to see the name of the station.

Then click to see weather observations and forecasts.

To change the map : click on the green buttons with a black cross to zoom in, on the green button with a dash to zoom out, or on the green arrows for adjacent maps.


METAR-TAF: